Air Navigation Services of Czech Republic
Airport: LKKV Updated:  18.07.2019 17:30:27  UTC
 METAR LKKV 18.07. 17:30 ...
METAR LKKV 181730Z 27006KT 240V300 CAVOK 23/06 Q1013 RMK REG QNH 1011=
 TAF LKKV 18.07. 17:00 ...
TAF LKKV 181700Z 1818/2000 30004KT CAVOK      BECMG 1818/1820 VRB02KT      TEMPO 1901/1913 -RA BKN030      BECMG 1908/1910 28006KT      TEMPO 1913/1917 SCT035TCU      BECMG 1918/1921 13004KT=